Friday, February 23, 2018, 7:16 AM EST
Back to Local

KBWI, Baltimore-washington International

Location: Glen Burnie, MD, United States Lat: 39.167
Local Time: 7:16 AM EST (12:16 GMT) Lon: -76.683
Time Zone: US/Eastern Elev: 147 ft

Show me the last for .
Show Decoded

2018-02-23 06:54 METAR KBWI 231154Z 07010KT 1 1/4SM -DZ BR OVC006 04/04 A3057 RMK AO2 SLP353
                 P0000 60004 70011 T00440044 10050 20039 56006 =
2018-02-23 06:45 METAR KBWI 231145Z 07007KT 1 1/4SM -DZ BR OVC006 04/04 A3057 RMK AO2 P0000
                 T00440044 =
2018-02-23 06:06 METAR KBWI 231106Z 10005KT 2 1/2SM -DZ BR OVC007 04/04 A3058 RMK AO2 P0000
                 T00390039 =
2018-02-23 05:54 METAR KBWI 231054Z 13004KT 3SM -DZ BR BKN007 OVC012 04/04 A3058 RMK AO2 DZB18
                 SLP355 P0000 T00390039 =
2018-02-23 05:10 METAR KBWI 231010Z 10005KT 10SM BKN009 OVC020 04/04 A3058 RMK AO2 T00390039 =
2018-02-23 04:54 METAR KBWI 230954Z 09008KT 10SM SCT010 OVC019 04/03 A3057 RMK AO2 RAB17E37
                 SLP352 P0002 T00390033 =
2018-02-23 04:02 METAR KBWI 230902Z 07011KT 10SM BKN010 OVC017 04/04 A3059 RMK AO2 T00440039 =
2018-02-23 03:54 METAR KBWI 230854Z 07009KT 10SM SCT008 OVC017 04/04 A3059 RMK AO2 RAE18 SLP360
                 P0000 60002 T00440039 53001 =
2018-02-23 03:51 METAR KBWI 230851Z 08007KT 10SM SCT008 OVC017 04/04 A3059 RMK AO2 RAE18 P0000 =
2018-02-23 03:22 METAR KBWI 230822Z 07008KT 9SM BKN009 OVC016 04/04 A3059 RMK AO2 RAE18 P0000
                 T00440044 =
2018-02-23 02:54 METAR KBWI 230754Z 06008KT 3SM -RA BR BKN010 OVC014 04/04 A3059 RMK AO2
                 DZE20RAB20 SLP358 P0002 T00440044 =
2018-02-23 02:27 METAR KBWI 230727Z 07011KT 10SM -RA BKN012 OVC021 05/04 A3058 RMK AO2 DZE20RAB20
                 P0000 T00500039 =
2018-02-23 01:54 METAR KBWI 230654Z 09008KT 9SM -DZ FEW008 OVC016 05/04 A3059 RMK AO2 DZB51
                 SLP359 P0000 T00500044 =
2018-02-23 01:49 METAR KBWI 230649Z 07007KT 9SM FEW008 OVC016 05/04 A3060 RMK AO2 =
2018-02-23 00:54 METAR KBWI 230554Z 08009KT 10SM BKN009 OVC014 04/04 A3060 RMK AO2 DZB24E35
                 SLP362 P0000 60000 T00440039 10061 20044 58001 =
2018-02-23 00:39 METAR KBWI 230539Z 08007KT 9SM BKN009 OVC014 04/04 A3061 RMK AO2 DZB24E35 P0000
                 T00440044 =
2018-02-22 23:54 METAR KBWI 230454Z 08008KT 7SM BKN014 OVC025 05/04 A3060 RMK AO2 SLP363
                 T00500039 401940050 =
2018-02-22 22:54 METAR KBWI 230354Z 08006KT 10SM OVC011 06/04 A3062 RMK AO2 SLP368 T00560044 =
2018-02-22 22:05 METAR KBWI 230305Z 07009KT 10SM BKN013 OVC018 06/04 A3061 RMK AO2 T00560039 =
2018-02-22 21:54 METAR KBWI 230254Z 08011KT 10SM OVC017 06/04 A3060 RMK AO2 SLP363 T00560039
                 53017 =
2018-02-22 20:54 METAR KBWI 230154Z 08013KT 10SM BKN015 OVC028 06/04 A3058 RMK AO2 SLP355
                 T00560044 =
2018-02-22 20:29 METAR KBWI 230129Z 07013KT 10SM BKN015 OVC031 06/04 A3058 RMK AO2 T00560044 =
2018-02-22 19:54 METAR KBWI 230054Z 07015G20KT 10SM OVC012 06/05 A3057 RMK AO2 SLP351 T00610050 =
2018-02-22 18:54 METAR KBWI 222354Z 06012KT 10SM BKN010 OVC019 06/06 A3055 RMK AO2 DZE05 SLP345
                 P0000 60007 T00610056 10111 20061 51023 =
2018-02-22 18:31 METAR KBWI 222331Z 07016G20KT 10SM OVC009 07/06 A3056 RMK AO2 DZE05 P0000
                 T00670061 =
2018-02-22 18:23 METAR KBWI 222323Z 06013KT 10SM OVC011 07/06 A3055 RMK AO2 DZE05 P0000 T00670061
                 =
2018-02-22 17:54 METAR KBWI 222254Z 06016G20KT 3SM -DZ BR BKN007 OVC014 07/07 A3054 RMK AO2
                 RAB08E23 SLP343 BKN007 V SCT P0004 T00720067 =
2018-02-22 17:46 METAR KBWI 222246Z 05011G16KT 3SM -DZ BR BKN007 BKN014 OVC045 07/07 A3055 RMK
                 AO2 RAB08E23 P0003 T00720072 =
2018-02-22 17:23 METAR KBWI 222223Z 04011KT 2 1/2SM -DZ BR SCT007 BKN019 OVC049 08/07 A3054 RMK
                 AO2 RAB08E23 P0003 T00780072 =
2018-02-22 16:54 METAR KBWI 222154Z 03009KT 1 1/2SM -DZ BR BKN007 OVC015 08/08 A3053 RMK AO2
                 SLP339 BKN007 V SCT P0001 T00780078 =
2018-02-22 16:49 METAR KBWI 222149Z 05010KT 1 1/2SM -DZ BR SCT007 OVC015 08/08 A3052 RMK AO2
                 P0001 =
2018-02-22 15:54 METAR KBWI 222054Z 04008KT 1 1/2SM -DZ BR BKN005 BKN012 OVC017 08/08 A3048 RMK
                 AO2 RAB38E51 SLP322 P0002 60002 T00830083 53009 =
2018-02-22 15:26 METAR KBWI 222026Z 05008KT 3/4SM R10/5000V5500FT -DZ BR BKN005 OVC009 09/09
                 A3048 RMK AO2 P0001 T00890089 =
2018-02-22 14:54 METAR KBWI 221954Z 10006KT 1 3/4SM -DZ BR BKN009 OVC013 09/09 A3047 RMK AO2
                 PRESRR SLP319 P0000 T00890089 =
2018-02-22 14:50 METAR KBWI 221950Z 08006KT 1 3/4SM -DZ BR BKN009 OVC013 09/09 A3047 RMK AO2
                 PRESRR P0000 =
2018-02-22 14:39 METAR KBWI 221939Z 09009KT 2 1/2SM -DZ BR FEW009 OVC013 09/08 A3045 RMK AO2
                 P0000 T00940083 =
2018-02-22 14:14 METAR KBWI 221914Z 09010KT 5SM -DZ BR OVC014 10/08 A3043 RMK AO2 P0000 T01000078
                 =
2018-02-22 13:54 METAR KBWI 221854Z 11011KT 10SM -DZ BKN018 OVC025 10/07 A3044 RMK AO2 SLP307
                 DZB31 P0000 T01000067 =
2018-02-22 12:54 METAR KBWI 221754Z 08008KT 10SM SCT017 OVC025 11/05 A3045 RMK AO2 RAB31E41
                 SLP312 VCSH S P0000 60000 T01110050 10117 20100 58014 =
2018-02-22 11:54 METAR KBWI 221654Z 07008KT 10SM FEW017 OVC029 11/06 A3049 RMK AO2 RAB1555E51
                 SLP324 P0000 T01060056 =
2018-02-22 10:54 METAR KBWI 221554Z 06009KT 10SM SCT017 OVC025 11/06 A3050 RMK AO2 SLP327
                 T01060056 =
2018-02-22 09:54 METAR KBWI 221454Z 05011KT 10SM FEW014 OVC028 11/06 A3049 RMK AO2 DZB22E45
                 SLP326 P0000 60000 T01060056 51016 =
2018-02-22 09:25 METAR KBWI 221425Z 05013KT 10SM -DZ OVC030 11/04 A3049 RMK AO2 DZB22 P0000
                 T01110044 =
2018-02-22 08:54 METAR KBWI 221354Z 04010KT 10SM OVC028 11/03 A3049 RMK AO2 SLP325 T01110028 =
2018-02-22 07:54 METAR KBWI 221254Z 04009KT 10SM OVC026 12/02 A3047 RMK AO2 SLP318 T01170017 =

Support USWX by starting your Amazon purchase here.